Overview Statistics Trail Chart Weather Telemetry Raw packets
 

This is the latest recevied weather packets stored in our database for station/object OK1FET-5. If no packets are shown the sender has not sent any weather packets the latest 10 day(s).

<< 40 41 42 43 44 45 46 >>
Time Temp. Humidity Pressure Rain* Wind** Luminosity Snow
1787936697 22.78° C 65% 1014.7 hPa - - - -
1787936101 23.33° C 62% 1014.5 hPa - - - -
1787934909 24.44° C 56% 1014.2 hPa - - - -
1787933781 25° C 55% 1013.8 hPa - - - -
1787933718 25° C 55% 1013.8 hPa - - - -
1787933122 25° C 55% 1013.8 hPa - - - -
1787932526 25.56° C 53% 1013.8 hPa - - - -
1787931930 25.56° C 53% 1013.6 hPa - - - -
1787931334 26.11° C 52% 1013.9 hPa - - - -
1787930739 26.11° C 52% 1014.4 hPa - - - -
1787929547 26.67° C 51% 1014.8 hPa - - - -
1787928951 27.22° C 50% 1014.8 hPa - - - -
1787928356 27.22° C 50% 1014.7 hPa - - - -
1787927164 26.11° C 51% 1014.7 hPa - - - -
1787926568 26.67° C 51% 1014.5 hPa - - - -
1787925972 26.67° C 51% 1014.7 hPa - - - -
1787925377 26.67° C 50% 1014.7 hPa - - - -
1787924185 27.78° C 48% 1014.6 hPa - - - -
1787922994 28.33° C 46% 1014.7 hPa - - - -
1787922398 30° C 44% 1014.6 hPa - - - -
1787921802 30° C 42% 1014.9 hPa - - - -
1787921206 30° C 42% 1014.9 hPa - - - -
1787920610 29.44° C 43% 1014.5 hPa - - - -
1787920014 28.33° C 44% 1014.2 hPa - - - -
1787919419 27.78° C 44% 1013.1 hPa - - - -

* Rain since midnight (hover to see other rain measurements)
** Current wind speed in m/s (hover to see current wind gust speed)